Nassauborg — PHDU — position and weather

sailwx.info

Track history (hours):
 
Tides and Currents Weather Stations Pressure Air Temp Water Temp Dewpoint Dewpoint Depression Visibility Wind Speed Wind Dir Waves Ship Positions

Nassauborg

Ship's website: http://www.wagenborg.com/index.cfm?pid=37&itemid=158&contentitemid=236

Last reported at 2017-Jan-17 06:34 UTC. Time now 2017-Jan-17 19:25 UTC.
Position N 55°32' E 015°03'.

Length 143 m; beam 22 m.

Type: Ship. MMSI: 246430000.

Date/timePositionNaut miles runAvg speedWind from/ knotsBaromVisibWave heightAir tempDewpointWater temp
2017-Jan-17 06:34N 55°32' E 015°03'1312.8
2017-Jan-17 05:32N 55°25' E 014°43'1212.5
2017-Jan-17 04:33N 55°16' E 014°28'5211.8
2017-Jan-17 00:09N 55°15' E 012°57'712.3
2017-Jan-16 23:33N 55°17' E 012°44'9 9.0
2017-Jan-16 22:33N 55°25' E 012°40'10 9.9
2017-Jan-16 21:33N 55°35' E 012°42'9 9.3
2017-Jan-16 20:34N 55°44' E 012°41'1110.7
2017-Jan-16 19:33N 55°55' E 012°38'10 9.7
2017-Jan-16 18:33N 56°04' E 012°36'1010.2
2017-Jan-16 17:33N 56°12' E 012°23'6111.4
2017-Jan-16 12:12N 57°07' E 011°36'812.4
2017-Jan-16 11:33N 57°15' E 011°31'1312.7
2017-Jan-16 10:33N 57°27' E 011°24'1212.4
2017-Jan-16 09:33N 57°35' E 011°07'1312.6
2017-Jan-16 08:33N 57°44' E 010°50'23111.4
2017-Jan-15 12:17N 54°58' E 006°00'911.5
2017-Jan-15 11:33N 54°51' E 005°52'1211.7
2017-Jan-15 10:32N 54°41' E 005°41'10410.3
2017-Jan-15 00:29N 53°07' E 004°27'9 9.1
2017-Jan-14 23:28N 52°59' E 004°18'10 9.0
2017-Jan-14 22:22N 52°50' E 004°12'7 8.6
2017-Jan-14 21:32N 52°44' E 004°06'8 8.6
2017-Jan-14 20:33N 52°36' E 003°60'10 9.4
2017-Jan-14 19:32N 52°27' E 003°54'1010.1
2017-Jan-14 18:33N 52°17' E 003°53'1111.1
2017-Jan-14 17:34N 52°06' E 003°56'6 6.3
2017-Jan-14 16:34N 52°01' E 004°01'9 9.2
2017-Jan-14 15:33N 51°56' E 004°13'7 6.8
2017-Jan-14 14:34N 51°54' E 004°23'2 2.4
2017-Jan-14 13:34N 51°53' E 004°27'0 0.0
2017-Jan-14 12:34N 51°53' E 004°27'0 0.0
2017-Jan-14 11:34N 51°53' E 004°27'0 0.0
2017-Jan-14 10:34N 51°53' E 004°27'0 0.0
2017-Jan-14 09:34N 51°53' E 004°27'0 0.0
2017-Jan-14 08:33N 51°53' E 004°27'0 0.0
2017-Jan-14 07:33N 51°53' E 004°27'0 0.0
2017-Jan-14 06:34N 51°53' E 004°27'0 0.0
2017-Jan-14 05:34N 51°53' E 004°27'0 0.0
2017-Jan-14 04:34N 51°53' E 004°27'0 0.0
2017-Jan-14 03:34N 51°53' E 004°27'0 0.0
2017-Jan-13 23:33N 51°53' E 004°27'0 0.0
2017-Jan-13 22:33N 51°53' E 004°27'0 0.0
2017-Jan-13 21:33N 51°53' E 004°27'0 0.0
2017-Jan-13 20:33N 51°53' E 004°27'0 0.0
2017-Jan-13 19:33N 51°53' E 004°27'0 0.0
2017-Jan-13 18:34N 51°53' E 004°27'0 0.0
2017-Jan-13 17:33N 51°53' E 004°27'0 0.0
2017-Jan-13 16:33N 51°53' E 004°27'0 0.0
2017-Jan-13 15:33N 51°53' E 004°27'0 0.0
2017-Jan-13 14:33N 51°53' E 004°27'0 0.0
2017-Jan-13 13:33N 51°53' E 004°27'0 0.0
2017-Jan-13 12:34N 51°53' E 004°27'0 0.0
2017-Jan-13 11:33N 51°53' E 004°27'0 0.0
2017-Jan-13 10:33N 51°53' E 004°27'0 0.0
2017-Jan-13 09:33N 51°53' E 004°27'0 0.0
2017-Jan-13 08:33N 51°53' E 004°27'0 0.0
2017-Jan-13 07:33N 51°53' E 004°27'0 0.0
2017-Jan-13 06:33N 51°53' E 004°27'0 0.0
2017-Jan-13 05:33N 51°53' E 004°27'0 0.0
2017-Jan-13 04:33N 51°53' E 004°27'0 0.0
2017-Jan-13 03:33N 51°53' E 004°27'0 0.0
2017-Jan-13 02:33N 51°53' E 004°27'0 0.0
2017-Jan-13 01:33N 51°53' E 004°27'0 0.0
2017-Jan-13 00:34N 51°53' E 004°27'0 0.0
2017-Jan-12 23:33N 51°53' E 004°27'0 0.0
2017-Jan-12 22:33N 51°53' E 004°27'0 0.0
2017-Jan-12 21:33N 51°53' E 004°27'0 0.0
2017-Jan-12 20:33N 51°53' E 004°27'0 0.0
2017-Jan-12 19:33N 51°53' E 004°27'0 0.0
2017-Jan-12 18:33N 51°53' E 004°27'0 0.0
2017-Jan-12 17:33N 51°53' E 004°27'0 0.0
2017-Jan-12 16:34N 51°53' E 004°27'0 0.0
2017-Jan-12 15:33N 51°53' E 004°27'0 0.0
2017-Jan-12 14:33N 51°53' E 004°27'0 0.0
2017-Jan-12 13:33N 51°53' E 004°27'0 0.0
2017-Jan-12 12:33N 51°53' E 004°27'0 0.0
2017-Jan-12 11:33N 51°53' E 004°27'0 0.0
2017-Jan-12 10:33N 51°53' E 004°27'0 0.0
2017-Jan-12 09:34N 51°53' E 004°27'0 0.0
2017-Jan-12 08:34N 51°53' E 004°27'0 0.0
2017-Jan-12 07:34N 51°53' E 004°27'0 0.0
2017-Jan-12 06:33N 51°53' E 004°27'0 0.0
2017-Jan-12 05:33N 51°53' E 004°27'0 0.0
2017-Jan-12 04:34N 51°53' E 004°27'0 0.0
2017-Jan-12 03:33N 51°53' E 004°27'0 0.0
2017-Jan-12 02:34N 51°53' E 004°27'0 0.0
2017-Jan-12 01:33N 51°53' E 004°27'0 0.0
2017-Jan-12 00:34N 51°53' E 004°27'0 0.0
2017-Jan-11 23:34N 51°53' E 004°27'0 0.0
2017-Jan-11 22:33N 51°53' E 004°27'0 0.0
2017-Jan-11 21:34N 51°53' E 004°27'0 0.0
2017-Jan-11 20:34N 51°53' E 004°27'0 0.0
2017-Jan-11 19:34N 51°53' E 004°27'0 0.0
2017-Jan-11 18:34N 51°53' E 004°27'0 0.0
2017-Jan-11 17:33N 51°53' E 004°27'0 0.0
2017-Jan-11 16:34N 51°53' E 004°27'0 0.0
2017-Jan-11 15:33N 51°53' E 004°27'0 0.0
2017-Jan-11 14:34N 51°53' E 004°27'0 0.0
2017-Jan-11 13:34N 51°53' E 004°27'0 0.0
2017-Jan-11 12:34N 51°53' E 004°27'0 0.0
2017-Jan-11 11:34N 51°53' E 004°27'0 0.0
2017-Jan-11 10:33N 51°53' E 004°27'0 0.0
2017-Jan-11 09:34N 51°53' E 004°27'0 0.0
2017-Jan-11 08:34N 51°53' E 004°27'0 0.0
2017-Jan-11 07:34N 51°53' E 004°27'0 0.0
2017-Jan-11 06:34N 51°53' E 004°27'0 0.0
2017-Jan-11 05:34N 51°53' E 004°27'0 0.0
2017-Jan-11 04:34N 51°53' E 004°27'0 0.0
2017-Jan-11 03:34N 51°53' E 004°27'0 0.0
2017-Jan-11 02:34N 51°53' E 004°27'0 0.0
2017-Jan-11 01:34N 51°53' E 004°27'0 0.0
2017-Jan-11 00:33N 51°53' E 004°27'0 0.0
2017-Jan-10 23:34N 51°53' E 004°27'0 0.0
2017-Jan-10 22:34N 51°53' E 004°27'0 0.0
2017-Jan-10 21:33N 51°53' E 004°27'0 0.0
2017-Jan-10 20:34N 51°53' E 004°27'0 0.0
2017-Jan-10 19:34N 51°53' E 004°27'0 0.0
2017-Jan-10 18:34N 51°53' E 004°27'0 0.0
2017-Jan-10 17:34N 51°53' E 004°27'0 0.0
2017-Jan-10 16:33N 51°53' E 004°27'0 0.0
2017-Jan-10 15:33N 51°53' E 004°27'0 0.0
2017-Jan-10 14:34N 51°53' E 004°27'0 0.0
2017-Jan-10 13:34N 51°53' E 004°27'0 0.0
2017-Jan-10 12:34N 51°53' E 004°27'0 0.0
2017-Jan-10 11:33N 51°53' E 004°27'0 0.0
2017-Jan-10 10:34N 51°53' E 004°27'0 0.0
2017-Jan-10 09:33N 51°53' E 004°27'0 0.0
2017-Jan-10 08:33N 51°53' E 004°27'0 0.0
2017-Jan-10 07:33N 51°53' E 004°27'0 0.0
2017-Jan-10 06:33N 51°53' E 004°27'0 0.0
2017-Jan-10 05:33N 51°53' E 004°27'0 0.0
2017-Jan-10 04:33N 51°53' E 004°27'0 0.0
2017-Jan-10 03:33N 51°53' E 004°27'0 0.0
2017-Jan-10 02:33N 51°53' E 004°27'0 0.0
2017-Jan-10 01:33N 51°53' E 004°27'0 0.0
2017-Jan-10 00:33N 51°53' E 004°27'0 0.0
2017-Jan-09 23:34N 51°53' E 004°27'0 0.0
2017-Jan-09 22:33N 51°53' E 004°27'0 0.0
2017-Jan-09 21:33N 51°53' E 004°27'0 0.0
2017-Jan-09 20:33N 51°53' E 004°27'0 0.0
2017-Jan-09 19:33N 51°53' E 004°27'0 0.0
2017-Jan-09 18:33N 51°53' E 004°27'0 0.0
2017-Jan-09 17:33N 51°53' E 004°27'0 0.0
2017-Jan-09 16:33N 51°53' E 004°27'0 0.0
2017-Jan-09 15:33N 51°53' E 004°27'0 0.0
2017-Jan-09 14:33N 51°53' E 004°27'0 0.0
2017-Jan-09 13:33N 51°53' E 004°27'0 0.0
2017-Jan-09 12:33N 51°53' E 004°27'0 0.0
2017-Jan-09 11:33N 51°53' E 004°27'0 0.0
2017-Jan-09 10:33N 51°53' E 004°27'0 0.0
2017-Jan-09 09:33N 51°53' E 004°27'0 0.0
2017-Jan-09 08:33N 51°53' E 004°27'0 0.0
2017-Jan-09 07:33N 51°53' E 004°27'0 0.0
2017-Jan-09 06:33N 51°53' E 004°27'0 0.0
2017-Jan-09 05:33N 51°53' E 004°27'0 0.0
2017-Jan-09 04:33N 51°53' E 004°27'0 0.0
2017-Jan-09 03:33N 51°53' E 004°27'0 0.0
2017-Jan-09 02:33N 51°53' E 004°27'0 0.0
2017-Jan-09 01:33N 51°53' E 004°27'0 0.0
2017-Jan-09 00:33N 51°53' E 004°27'0 0.0
2017-Jan-08 23:33N 51°53' E 004°27'0 0.0
2017-Jan-08 22:34N 51°53' E 004°27'0 0.0
2017-Jan-08 21:33N 51°53' E 004°27'0 0.0
2017-Jan-08 20:33N 51°53' E 004°27'0 0.0
2017-Jan-08 19:33N 51°53' E 004°27'0 0.0
2017-Jan-08 18:33N 51°53' E 004°27'0 0.0
2017-Jan-08 17:33N 51°53' E 004°27'0 0.0
2017-Jan-08 16:34N 51°53' E 004°27'0 0.0
2017-Jan-08 15:34N 51°53' E 004°27'0 0.0
2017-Jan-08 14:34N 51°53' E 004°27'0 0.0
2017-Jan-08 13:34N 51°53' E 004°27'0 0.0
2017-Jan-08 12:34N 51°53' E 004°27'0 0.0
2017-Jan-08 11:34N 51°53' E 004°27'0 0.0
2017-Jan-08 10:34N 51°53' E 004°27'0 0.0
2017-Jan-08 09:33N 51°53' E 004°27'0 0.0
2017-Jan-08 08:34N 51°53' E 004°27'0 0.0
2017-Jan-08 07:34N 51°53' E 004°27'0 0.0
2017-Jan-08 06:34N 51°53' E 004°27'0 0.0
2017-Jan-08 05:34N 51°53' E 004°27'0 0.0
2017-Jan-08 04:34N 51°53' E 004°27'0 0.0
2017-Jan-08 03:34N 51°53' E 004°27'0 0.0
2017-Jan-08 02:34N 51°53' E 004°27'0 0.0
2017-Jan-08 01:34N 51°53' E 004°27'0 0.0
2017-Jan-08 00:34N 51°53' E 004°27'0 0.0
2017-Jan-07 23:34N 51°53' E 004°27'0 0.0
2017-Jan-07 22:34N 51°53' E 004°27'0 0.0
2017-Jan-07 21:34N 51°53' E 004°27'0 0.0
2017-Jan-07 20:34N 51°53' E 004°27'0 0.0
2017-Jan-07 19:34N 51°53' E 004°27'0 0.0
2017-Jan-07 18:34N 51°53' E 004°27'0 0.0
2017-Jan-07 17:34N 51°53' E 004°27'0 0.0
2017-Jan-07 16:34N 51°53' E 004°27'0 0.0
2017-Jan-07 15:34N 51°53' E 004°27'0 0.0
2017-Jan-07 14:34N 51°53' E 004°27'0 0.0
2017-Jan-07 13:34N 51°53' E 004°27'0 0.0
2017-Jan-07 12:34N 51°53' E 004°27'0 0.0
2017-Jan-07 11:33N 51°53' E 004°27'0 0.0
2017-Jan-07 10:33N 51°53' E 004°27'0 0.0
2017-Jan-07 09:33N 51°53' E 004°27'0 0.0
2017-Jan-07 08:33N 51°53' E 004°27'0 0.0
2017-Jan-07 07:34N 51°53' E 004°27'0 0.0
2017-Jan-07 06:34N 51°53' E 004°27'  
Track history (hours):
 
Tides and Currents Weather Stations Pressure Air Temp Water Temp Dewpoint Dewpoint Depression Visibility Wind Speed Wind Dir Waves Ship Positions

Nassauborg

Ship's website: http://www.wagenborg.com/index.cfm?pid=37&itemid=158&contentitemid=236

Last reported at 2017-Jan-17 06:34 UTC. Time now 2017-Jan-17 19:25 UTC.
Position N 55°32' E 015°03'.

Length 143 m; beam 22 m.

Type: Ship. MMSI: 246430000.

Date/timePositionNaut miles runAvg speedWind from/ knotsBaromVisibWave heightAir tempDewpointWater temp
2017-Jan-17 06:34N 55°32' E 015°03'1312.8
2017-Jan-17 05:32N 55°25' E 014°43'1212.5
2017-Jan-17 04:33N 55°16' E 014°28'5211.8
2017-Jan-17 00:09N 55°15' E 012°57'712.3
2017-Jan-16 23:33N 55°17' E 012°44'9 9.0
2017-Jan-16 22:33N 55°25' E 012°40'10 9.9
2017-Jan-16 21:33N 55°35' E 012°42'9 9.3
2017-Jan-16 20:34N 55°44' E 012°41'1110.7
2017-Jan-16 19:33N 55°55' E 012°38'10 9.7
2017-Jan-16 18:33N 56°04' E 012°36'1010.2
2017-Jan-16 17:33N 56°12' E 012°23'6111.4
2017-Jan-16 12:12N 57°07' E 011°36'812.4
2017-Jan-16 11:33N 57°15' E 011°31'1312.7
2017-Jan-16 10:33N 57°27' E 011°24'1212.4
2017-Jan-16 09:33N 57°35' E 011°07'1312.6
2017-Jan-16 08:33N 57°44' E 010°50'23111.4
2017-Jan-15 12:17N 54°58' E 006°00'911.5
2017-Jan-15 11:33N 54°51' E 005°52'1211.7
2017-Jan-15 10:32N 54°41' E 005°41'10410.3
2017-Jan-15 00:29N 53°07' E 004°27'9 9.1
2017-Jan-14 23:28N 52°59' E 004°18'10 9.0
2017-Jan-14 22:22N 52°50' E 004°12'7 8.6
2017-Jan-14 21:32N 52°44' E 004°06'8 8.6
2017-Jan-14 20:33N 52°36' E 003°60'10 9.4
2017-Jan-14 19:32N 52°27' E 003°54'1010.1
2017-Jan-14 18:33N 52°17' E 003°53'1111.1
2017-Jan-14 17:34N 52°06' E 003°56'6 6.3
2017-Jan-14 16:34N 52°01' E 004°01'9 9.2
2017-Jan-14 15:33N 51°56' E 004°13'7 6.8
2017-Jan-14 14:34N 51°54' E 004°23'2 2.4
2017-Jan-14 13:34N 51°53' E 004°27'0 0.0
2017-Jan-14 12:34N 51°53' E 004°27'0 0.0
2017-Jan-14 11:34N 51°53' E 004°27'0 0.0
2017-Jan-14 10:34N 51°53' E 004°27'0 0.0
2017-Jan-14 09:34N 51°53' E 004°27'0 0.0
2017-Jan-14 08:33N 51°53' E 004°27'0 0.0
2017-Jan-14 07:33N 51°53' E 004°27'0 0.0
2017-Jan-14 06:34N 51°53' E 004°27'0 0.0
2017-Jan-14 05:34N 51°53' E 004°27'0 0.0
2017-Jan-14 04:34N 51°53' E 004°27'0 0.0
2017-Jan-14 03:34N 51°53' E 004°27'0 0.0
2017-Jan-13 23:33N 51°53' E 004°27'0 0.0
2017-Jan-13 22:33N 51°53' E 004°27'0 0.0
2017-Jan-13 21:33N 51°53' E 004°27'0 0.0
2017-Jan-13 20:33N 51°53' E 004°27'0 0.0
2017-Jan-13 19:33N 51°53' E 004°27'0 0.0
2017-Jan-13 18:34N 51°53' E 004°27'0 0.0
2017-Jan-13 17:33N 51°53' E 004°27'0 0.0
2017-Jan-13 16:33N 51°53' E 004°27'0 0.0
2017-Jan-13 15:33N 51°53' E 004°27'0 0.0
2017-Jan-13 14:33N 51°53' E 004°27'0 0.0
2017-Jan-13 13:33N 51°53' E 004°27'0 0.0
2017-Jan-13 12:34N 51°53' E 004°27'0 0.0
2017-Jan-13 11:33N 51°53' E 004°27'0 0.0
2017-Jan-13 10:33N 51°53' E 004°27'0 0.0
2017-Jan-13 09:33N 51°53' E 004°27'0 0.0
2017-Jan-13 08:33N 51°53' E 004°27'0 0.0
2017-Jan-13 07:33N 51°53' E 004°27'0 0.0
2017-Jan-13 06:33N 51°53' E 004°27'0 0.0
2017-Jan-13 05:33N 51°53' E 004°27'0 0.0
2017-Jan-13 04:33N 51°53' E 004°27'0 0.0
2017-Jan-13 03:33N 51°53' E 004°27'0 0.0
2017-Jan-13 02:33N 51°53' E 004°27'0 0.0
2017-Jan-13 01:33N 51°53' E 004°27'0 0.0
2017-Jan-13 00:34N 51°53' E 004°27'0 0.0
2017-Jan-12 23:33N 51°53' E 004°27'0 0.0
2017-Jan-12 22:33N 51°53' E 004°27'0 0.0
2017-Jan-12 21:33N 51°53' E 004°27'0 0.0
2017-Jan-12 20:33N 51°53' E 004°27'0 0.0
2017-Jan-12 19:33N 51°53' E 004°27'0 0.0
2017-Jan-12 18:33N 51°53' E 004°27'0 0.0
2017-Jan-12 17:33N 51°53' E 004°27'0 0.0
2017-Jan-12 16:34N 51°53' E 004°27'0 0.0
2017-Jan-12 15:33N 51°53' E 004°27'0 0.0
2017-Jan-12 14:33N 51°53' E 004°27'0 0.0
2017-Jan-12 13:33N 51°53' E 004°27'0 0.0
2017-Jan-12 12:33N 51°53' E 004°27'0 0.0
2017-Jan-12 11:33N 51°53' E 004°27'0 0.0
2017-Jan-12 10:33N 51°53' E 004°27'0 0.0
2017-Jan-12 09:34N 51°53' E 004°27'0 0.0
2017-Jan-12 08:34N 51°53' E 004°27'0 0.0
2017-Jan-12 07:34N 51°53' E 004°27'0 0.0
2017-Jan-12 06:33N 51°53' E 004°27'0 0.0
2017-Jan-12 05:33N 51°53' E 004°27'0 0.0
2017-Jan-12 04:34N 51°53' E 004°27'0 0.0
2017-Jan-12 03:33N 51°53' E 004°27'0 0.0
2017-Jan-12 02:34N 51°53' E 004°27'0 0.0
2017-Jan-12 01:33N 51°53' E 004°27'0 0.0
2017-Jan-12 00:34N 51°53' E 004°27'0 0.0
2017-Jan-11 23:34N 51°53' E 004°27'0 0.0
2017-Jan-11 22:33N 51°53' E 004°27'0 0.0
2017-Jan-11 21:34N 51°53' E 004°27'0 0.0
2017-Jan-11 20:34N 51°53' E 004°27'0 0.0
2017-Jan-11 19:34N 51°53' E 004°27'0 0.0
2017-Jan-11 18:34N 51°53' E 004°27'0 0.0
2017-Jan-11 17:33N 51°53' E 004°27'0 0.0
2017-Jan-11 16:34N 51°53' E 004°27'0 0.0
2017-Jan-11 15:33N 51°53' E 004°27'0 0.0
2017-Jan-11 14:34N 51°53' E 004°27'0 0.0
2017-Jan-11 13:34N 51°53' E 004°27'0 0.0
2017-Jan-11 12:34N 51°53' E 004°27'0 0.0
2017-Jan-11 11:34N 51°53' E 004°27'0 0.0
2017-Jan-11 10:33N 51°53' E 004°27'0 0.0
2017-Jan-11 09:34N 51°53' E 004°27'0 0.0
2017-Jan-11 08:34N 51°53' E 004°27'0 0.0
2017-Jan-11 07:34N 51°53' E 004°27'0 0.0
2017-Jan-11 06:34N 51°53' E 004°27'0 0.0
2017-Jan-11 05:34N 51°53' E 004°27'0 0.0
2017-Jan-11 04:34N 51°53' E 004°27'0 0.0
2017-Jan-11 03:34N 51°53' E 004°27'0 0.0
2017-Jan-11 02:34N 51°53' E 004°27'0 0.0
2017-Jan-11 01:34N 51°53' E 004°27'0 0.0
2017-Jan-11 00:33N 51°53' E 004°27'0 0.0
2017-Jan-10 23:34N 51°53' E 004°27'0 0.0
2017-Jan-10 22:34N 51°53' E 004°27'0 0.0
2017-Jan-10 21:33N 51°53' E 004°27'0 0.0
2017-Jan-10 20:34N 51°53' E 004°27'0 0.0
2017-Jan-10 19:34N 51°53' E 004°27'0 0.0
2017-Jan-10 18:34N 51°53' E 004°27'0 0.0
2017-Jan-10 17:34N 51°53' E 004°27'0 0.0
2017-Jan-10 16:33N 51°53' E 004°27'0 0.0
2017-Jan-10 15:33N 51°53' E 004°27'0 0.0
2017-Jan-10 14:34N 51°53' E 004°27'0 0.0
2017-Jan-10 13:34N 51°53' E 004°27'0 0.0
2017-Jan-10 12:34N 51°53' E 004°27'0 0.0
2017-Jan-10 11:33N 51°53' E 004°27'0 0.0
2017-Jan-10 10:34N 51°53' E 004°27'0 0.0
2017-Jan-10 09:33N 51°53' E 004°27'0 0.0
2017-Jan-10 08:33N 51°53' E 004°27'0 0.0
2017-Jan-10 07:33N 51°53' E 004°27'0 0.0
2017-Jan-10 06:33N 51°53' E 004°27'0 0.0
2017-Jan-10 05:33N 51°53' E 004°27'0 0.0
2017-Jan-10 04:33N 51°53' E 004°27'0 0.0
2017-Jan-10 03:33N 51°53' E 004°27'0 0.0
2017-Jan-10 02:33N 51°53' E 004°27'0 0.0
2017-Jan-10 01:33N 51°53' E 004°27'0 0.0
2017-Jan-10 00:33N 51°53' E 004°27'0 0.0
2017-Jan-09 23:34N 51°53' E 004°27'0 0.0
2017-Jan-09 22:33N 51°53' E 004°27'0 0.0
2017-Jan-09 21:33N 51°53' E 004°27'0 0.0
2017-Jan-09 20:33N 51°53' E 004°27'0 0.0
2017-Jan-09 19:33N 51°53' E 004°27'0 0.0
2017-Jan-09 18:33N 51°53' E 004°27'0 0.0
2017-Jan-09 17:33N 51°53' E 004°27'0 0.0
2017-Jan-09 16:33N 51°53' E 004°27'0 0.0
2017-Jan-09 15:33N 51°53' E 004°27'0 0.0
2017-Jan-09 14:33N 51°53' E 004°27'0 0.0
2017-Jan-09 13:33N 51°53' E 004°27'0 0.0
2017-Jan-09 12:33N 51°53' E 004°27'0 0.0
2017-Jan-09 11:33N 51°53' E 004°27'0 0.0
2017-Jan-09 10:33N 51°53' E 004°27'0 0.0
2017-Jan-09 09:33N 51°53' E 004°27'0 0.0
2017-Jan-09 08:33N 51°53' E 004°27'0 0.0
2017-Jan-09 07:33N 51°53' E 004°27'0 0.0
2017-Jan-09 06:33N 51°53' E 004°27'0 0.0
2017-Jan-09 05:33N 51°53' E 004°27'0 0.0
2017-Jan-09 04:33N 51°53' E 004°27'0 0.0
2017-Jan-09 03:33N 51°53' E 004°27'0 0.0
2017-Jan-09 02:33N 51°53' E 004°27'0 0.0
2017-Jan-09 01:33N 51°53' E 004°27'0 0.0
2017-Jan-09 00:33N 51°53' E 004°27'0 0.0
2017-Jan-08 23:33N 51°53' E 004°27'0 0.0
2017-Jan-08 22:34N 51°53' E 004°27'0 0.0
2017-Jan-08 21:33N 51°53' E 004°27'0 0.0
2017-Jan-08 20:33N 51°53' E 004°27'0 0.0
2017-Jan-08 19:33N 51°53' E 004°27'0 0.0
2017-Jan-08 18:33N 51°53' E 004°27'0 0.0
2017-Jan-08 17:33N 51°53' E 004°27'0 0.0
2017-Jan-08 16:34N 51°53' E 004°27'0 0.0
2017-Jan-08 15:34N 51°53' E 004°27'0 0.0
2017-Jan-08 14:34N 51°53' E 004°27'0 0.0
2017-Jan-08 13:34N 51°53' E 004°27'0 0.0
2017-Jan-08 12:34N 51°53' E 004°27'0 0.0
2017-Jan-08 11:34N 51°53' E 004°27'0 0.0
2017-Jan-08 10:34N 51°53' E 004°27'0 0.0
2017-Jan-08 09:33N 51°53' E 004°27'0 0.0
2017-Jan-08 08:34N 51°53' E 004°27'0 0.0
2017-Jan-08 07:34N 51°53' E 004°27'0 0.0
2017-Jan-08 06:34N 51°53' E 004°27'0 0.0
2017-Jan-08 05:34N 51°53' E 004°27'0 0.0
2017-Jan-08 04:34N 51°53' E 004°27'0 0.0
2017-Jan-08 03:34N 51°53' E 004°27'0 0.0
2017-Jan-08 02:34N 51°53' E 004°27'0 0.0
2017-Jan-08 01:34N 51°53' E 004°27'0 0.0
2017-Jan-08 00:34N 51°53' E 004°27'0 0.0
2017-Jan-07 23:34N 51°53' E 004°27'0 0.0
2017-Jan-07 22:34N 51°53' E 004°27'0 0.0
2017-Jan-07 21:34N 51°53' E 004°27'0 0.0
2017-Jan-07 20:34N 51°53' E 004°27'0 0.0
2017-Jan-07 19:34N 51°53' E 004°27'0 0.0
2017-Jan-07 18:34N 51°53' E 004°27'0 0.0
2017-Jan-07 17:34N 51°53' E 004°27'0 0.0
2017-Jan-07 16:34N 51°53' E 004°27'0 0.0
2017-Jan-07 15:34N 51°53' E 004°27'0 0.0
2017-Jan-07 14:34N 51°53' E 004°27'0 0.0
2017-Jan-07 13:34N 51°53' E 004°27'0 0.0
2017-Jan-07 12:34N 51°53' E 004°27'0 0.0
2017-Jan-07 11:33N 51°53' E 004°27'0 0.0
2017-Jan-07 10:33N 51°53' E 004°27'0 0.0
2017-Jan-07 09:33N 51°53' E 004°27'0 0.0
2017-Jan-07 08:33N 51°53' E 004°27'0 0.0
2017-Jan-07 07:34N 51°53' E 004°27'0 0.0
2017-Jan-07 06:34N 51°53' E 004°27'  

Dump ship's entire track history